createdAt,value
2023-03-23T15:59:44.034Z,91.70
2023-03-23T16:02:22.891Z,91.70
2023-03-23T16:04:51.608Z,91.80
2023-03-23T16:07:23.291Z,91.50
2023-03-23T16:09:51.671Z,91.30
2023-03-23T16:12:19.125Z,91.20
2023-03-23T16:14:46.630Z,91.40
2023-03-23T16:17:17.725Z,90.40
2023-03-23T16:19:45.350Z,90.40
2023-03-23T16:22:12.860Z,90.60
2023-03-23T16:24:40.569Z,90.70
2023-03-23T16:27:10.491Z,90.80
2023-03-23T16:29:59.941Z,90.90
2023-03-23T16:32:25.461Z,91.00
2023-03-23T16:34:52.868Z,90.50
2023-03-23T16:37:20.664Z,90.80
2023-03-23T16:39:50.562Z,90.80
2023-03-23T16:42:19.587Z,90.80
2023-03-23T16:44:52.005Z,90.70
2023-03-23T16:47:23.709Z,91.00
2023-03-23T16:49:53.641Z,90.80
2023-03-23T16:52:22.028Z,90.70
2023-03-23T16:54:49.425Z,91.20
2023-03-23T16:57:16.813Z,91.00
2023-03-23T16:59:44.606Z,91.10
2023-03-23T17:02:12.912Z,91.00
2023-03-23T17:04:44.072Z,91.40
2023-03-23T17:07:13.065Z,91.50
2023-03-23T17:09:41.728Z,91.70
2023-03-23T17:12:10.258Z,91.60
2023-03-23T17:14:37.742Z,91.70
2023-03-23T17:17:05.164Z,91.90
2023-03-23T17:19:32.602Z,91.80
2023-03-23T17:22:00.207Z,91.70
2023-03-23T17:24:27.705Z,91.30
2023-03-23T17:26:55.539Z,91.10
2023-03-23T17:29:23.553Z,91.30
2023-03-23T17:31:51.844Z,91.20
2023-03-23T17:34:19.871Z,91.10
2023-03-23T17:36:47.333Z,91.50
2023-03-23T17:39:14.798Z,91.50
2023-03-23T17:41:42.383Z,91.60
2023-03-23T17:44:09.831Z,92.00
2023-03-23T17:46:37.253Z,92.10
2023-03-23T17:49:04.791Z,92.20
2023-03-23T17:51:32.211Z,92.50
2023-03-23T17:53:59.571Z,92.70
2023-03-23T17:56:26.996Z,92.80
2023-03-23T17:58:54.865Z,93.00
2023-03-23T18:01:22.387Z,93.40
2023-03-23T18:03:49.846Z,93.60
2023-03-23T18:06:17.442Z,93.70
2023-03-23T18:08:45.007Z,93.70
2023-03-23T18:11:12.666Z,94.20
2023-03-23T18:13:40.318Z,94.80
2023-03-23T18:16:08.679Z,95.00
2023-03-23T18:18:36.446Z,95.00
2023-03-23T18:21:08.192Z,94.90
2023-03-23T18:23:46.101Z,95.20
2023-03-23T18:26:21.905Z,95.60
2023-03-23T18:28:51.947Z,95.40
2023-03-23T18:31:20.393Z,95.70
2023-03-23T18:33:49.806Z,96.30
2023-03-23T18:36:20.598Z,96.40
2023-03-23T18:38:49.249Z,96.90
2023-03-23T18:41:17.693Z,97.00
2023-03-23T18:43:46.099Z,97.40
2023-03-23T18:46:13.818Z,97.90
2023-03-23T18:48:41.418Z,97.70
2023-03-23T18:51:09.461Z,97.50
2023-03-23T18:53:36.933Z,97.70
2023-03-23T18:56:12.820Z,98.10
2023-03-23T18:58:40.430Z,98.50
2023-03-23T19:01:11.125Z,98.30
2023-03-23T19:03:40.382Z,99.80
2023-03-23T19:06:17.539Z,99.90
2023-03-23T19:08:45.878Z,99.90
2023-03-23T19:11:14.282Z,99.80
2023-03-23T19:13:50.751Z,98.90
2023-03-23T19:16:26.114Z,98.00
2023-03-23T19:18:53.459Z,97.90
2023-03-23T19:21:25.266Z,97.80
2023-03-23T19:23:55.500Z,98.10
2023-03-23T19:26:27.386Z,98.60
2023-03-23T19:29:24.407Z,99.30
2023-03-23T19:31:44.704Z,99.40
2023-03-23T19:34:14.160Z,99.40
2023-03-23T19:36:48.162Z,99.50
2023-03-23T19:39:22.186Z,99.40
2023-03-23T19:41:51.005Z,99.50
2023-03-23T19:44:18.611Z,99.50
2023-03-23T19:46:47.987Z,99.50
2023-03-23T19:49:15.676Z,99.60
2023-03-23T19:51:43.120Z,99.70
2023-03-23T19:54:10.858Z,99.90
2023-03-23T19:56:38.508Z,99.90
2023-03-23T19:59:07.944Z,99.90
2023-03-23T20:01:35.516Z,99.90
2023-03-23T20:04:05.340Z,99.90
2023-03-23T20:06:33.878Z,99.90
2023-03-23T20:09:05.174Z,99.90
2023-03-23T20:11:33.994Z,99.90
2023-03-23T20:14:02.367Z,99.90
2023-03-23T20:16:29.820Z,99.90
2023-03-23T20:19:00.056Z,99.90
2023-03-23T20:21:28.718Z,99.90
2023-03-23T20:23:58.631Z,99.90
2023-03-23T20:26:29.612Z,99.90
2023-03-23T20:28:57.178Z,99.90
2023-03-23T20:31:27.311Z,99.90
2023-03-23T20:34:02.154Z,99.90
2023-03-23T20:36:35.157Z,99.90
2023-03-23T20:39:14.392Z,99.90
2023-03-23T20:41:43.623Z,99.90
2023-03-23T20:44:16.147Z,99.90
2023-03-23T20:46:45.407Z,99.90
2023-03-23T20:49:13.958Z,99.90
2023-03-23T20:51:41.776Z,99.90
2023-03-23T20:54:10.107Z,99.90
2023-03-23T20:56:40.459Z,99.90
2023-03-23T20:59:08.217Z,99.90
2023-03-23T21:01:37.092Z,99.90
2023-03-23T21:04:05.333Z,99.90
2023-03-23T21:06:34.003Z,99.90
2023-03-23T21:09:01.446Z,99.90
2023-03-23T21:11:30.115Z,99.90
2023-03-23T21:13:57.570Z,99.90
2023-03-23T21:16:25.230Z,99.90
2023-03-23T21:18:52.960Z,99.90
2023-03-23T21:21:20.782Z,99.90
2023-03-23T21:23:52.353Z,99.90
2023-03-23T21:26:22.634Z,99.90
2023-03-23T21:28:50.929Z,99.90
2023-03-23T21:31:18.758Z,99.90
2023-03-23T21:33:46.525Z,99.90
2023-03-23T21:36:13.984Z,99.90
2023-03-23T21:38:41.463Z,99.90
2023-03-23T21:41:11.700Z,99.90
2023-03-23T21:43:40.743Z,99.90
2023-03-23T21:46:09.636Z,99.90
2023-03-23T21:48:41.553Z,99.90
2023-03-23T21:51:15.485Z,99.90
2023-03-23T21:53:43.674Z,99.90
2023-03-23T21:56:11.829Z,99.90
2023-03-23T21:58:39.260Z,99.90
2023-03-23T22:01:08.245Z,99.90
2023-03-23T22:03:36.271Z,99.90
2023-03-23T22:06:10.740Z,99.90
2023-03-23T22:08:40.140Z,99.90
2023-03-23T22:11:13.822Z,99.90
2023-03-23T22:13:42.186Z,99.90
2023-03-23T22:16:13.426Z,99.90
2023-03-23T22:18:45.284Z,99.90
2023-03-23T22:21:14.571Z,99.90
2023-03-23T22:23:42.666Z,99.90
2023-03-23T22:26:12.175Z,99.90
2023-03-23T22:28:40.419Z,99.90
2023-03-23T22:31:14.155Z,99.90
2023-03-23T22:33:41.672Z,99.90
2023-03-23T22:36:09.747Z,99.90
2023-03-23T22:38:39.381Z,99.90
2023-03-23T22:41:08.518Z,99.90
2023-03-23T22:43:36.984Z,99.90
2023-03-23T22:46:05.170Z,99.90
2023-03-23T22:48:33.340Z,99.90
2023-03-23T22:51:01.460Z,99.90
2023-03-23T22:53:29.248Z,99.90
2023-03-23T22:55:57.820Z,99.90
2023-03-23T22:58:26.846Z,99.90
2023-03-23T23:01:00.807Z,99.90
2023-03-23T23:03:30.379Z,99.90
2023-03-23T23:05:59.281Z,99.90
2023-03-23T23:08:28.578Z,99.90
2023-03-23T23:10:58.635Z,99.90
2023-03-23T23:13:26.832Z,99.90
2023-03-23T23:15:56.934Z,99.90
2023-03-23T23:18:26.203Z,99.90
2023-03-23T23:20:58.875Z,99.90
2023-03-23T23:23:28.083Z,99.90
2023-03-23T23:25:56.379Z,99.90
2023-03-23T23:28:26.660Z,99.90
2023-03-23T23:30:54.668Z,99.90
2023-03-23T23:33:22.626Z,99.90
2023-03-23T23:35:50.297Z,99.90
2023-03-23T23:38:18.249Z,99.90
2023-03-23T23:40:47.271Z,99.90
2023-03-23T23:43:16.319Z,99.90
2023-03-23T23:45:44.362Z,99.90
2023-03-23T23:48:12.678Z,99.90
2023-03-23T23:50:40.224Z,99.90
2023-03-23T23:53:09.933Z,99.90
2023-03-23T23:55:39.420Z,99.90
2023-03-23T23:58:06.927Z,99.90
